sensor_id;sensor_type;location;lat;lon;timestamp;P1;durP1;ratioP1;P2;durP2;ratioP2
18711;SDS011;9485;49.386;8.674;2024-02-28T00:02:44;12.27;;;9.07;;
18711;SDS011;9485;49.386;8.674;2024-02-28T00:08:05;12.57;;;9.77;;
18711;SDS011;9485;49.386;8.674;2024-02-28T00:13:26;11.53;;;8.63;;
18711;SDS011;9485;49.386;8.674;2024-02-28T00:18:47;10.57;;;8.17;;
18711;SDS011;9485;49.386;8.674;2024-02-28T00:24:09;10.97;;;8.67;;
18711;SDS011;9485;49.386;8.674;2024-02-28T00:29:30;12.50;;;8.40;;
18711;SDS011;9485;49.386;8.674;2024-02-28T00:34:50;12.93;;;9.13;;
18711;SDS011;9485;49.386;8.674;2024-02-28T00:40:12;10.93;;;8.67;;
18711;SDS011;9485;49.386;8.674;2024-02-28T00:45:33;11.93;;;8.93;;
18711;SDS011;9485;49.386;8.674;2024-02-28T00:50:53;11.20;;;8.07;;
18711;SDS011;9485;49.386;8.674;2024-02-28T00:56:16;12.87;;;8.63;;
18711;SDS011;9485;49.386;8.674;2024-02-28T01:01:37;10.80;;;8.40;;
18711;SDS011;9485;49.386;8.674;2024-02-28T01:06:57;10.57;;;8.37;;
18711;SDS011;9485;49.386;8.674;2024-02-28T01:12:19;11.03;;;8.07;;
18711;SDS011;9485;49.386;8.674;2024-02-28T01:17:40;11.30;;;8.30;;
18711;SDS011;9485;49.386;8.674;2024-02-28T01:23:00;13.10;;;8.53;;
18711;SDS011;9485;49.386;8.674;2024-02-28T01:28:22;10.83;;;7.70;;
18711;SDS011;9485;49.386;8.674;2024-02-28T01:33:43;10.73;;;8.27;;
18711;SDS011;9485;49.386;8.674;2024-02-28T01:39:03;9.73;;;7.80;;
18711;SDS011;9485;49.386;8.674;2024-02-28T01:44:25;9.53;;;7.27;;
18711;SDS011;9485;49.386;8.674;2024-02-28T01:49:46;11.00;;;7.73;;
18711;SDS011;9485;49.386;8.674;2024-02-28T01:55:09;10.63;;;8.47;;
18711;SDS011;9485;49.386;8.674;2024-02-28T02:00:31;11.23;;;8.03;;
18711;SDS011;9485;49.386;8.674;2024-02-28T02:05:53;9.40;;;7.57;;
18711;SDS011;9485;49.386;8.674;2024-02-28T02:11:13;11.77;;;7.87;;
18711;SDS011;9485;49.386;8.674;2024-02-28T02:16:39;9.47;;;7.43;;
18711;SDS011;9485;49.386;8.674;2024-02-28T02:21:59;11.47;;;8.43;;
18711;SDS011;9485;49.386;8.674;2024-02-28T02:27:26;13.33;;;9.60;;
18711;SDS011;9485;49.386;8.674;2024-02-28T02:32:47;12.37;;;8.87;;
18711;SDS011;9485;49.386;8.674;2024-02-28T02:38:08;15.17;;;9.80;;
18711;SDS011;9485;49.386;8.674;2024-02-28T02:43:29;13.07;;;8.90;;
18711;SDS011;9485;49.386;8.674;2024-02-28T02:48:50;14.23;;;9.53;;
18711;SDS011;9485;49.386;8.674;2024-02-28T02:54:11;12.17;;;9.03;;
18711;SDS011;9485;49.386;8.674;2024-02-28T02:59:33;12.80;;;8.93;;
18711;SDS011;9485;49.386;8.674;2024-02-28T03:04:55;12.87;;;9.30;;
18711;SDS011;9485;49.386;8.674;2024-02-28T03:10:16;13.30;;;9.50;;
18711;SDS011;9485;49.386;8.674;2024-02-28T03:15:37;12.83;;;8.63;;
18711;SDS011;9485;49.386;8.674;2024-02-28T03:20:58;12.23;;;8.47;;
18711;SDS011;9485;49.386;8.674;2024-02-28T03:26:18;11.67;;;8.77;;
18711;SDS011;9485;49.386;8.674;2024-02-28T03:31:40;12.37;;;9.03;;
18711;SDS011;9485;49.386;8.674;2024-02-28T03:37:01;14.73;;;9.13;;
18711;SDS011;9485;49.386;8.674;2024-02-28T03:42:22;11.77;;;8.50;;
18711;SDS011;9485;49.386;8.674;2024-02-28T03:47:43;11.83;;;7.87;;
18711;SDS011;9485;49.386;8.674;2024-02-28T03:53:04;11.33;;;8.77;;
18711;SDS011;9485;49.386;8.674;2024-02-28T03:58:26;13.27;;;8.90;;
18711;SDS011;9485;49.386;8.674;2024-02-28T04:03:49;14.87;;;9.40;;
18711;SDS011;9485;49.386;8.674;2024-02-28T04:09:11;14.53;;;9.07;;
18711;SDS011;9485;49.386;8.674;2024-02-28T04:14:31;14.67;;;9.67;;
18711;SDS011;9485;49.386;8.674;2024-02-28T04:19:53;14.37;;;9.67;;
18711;SDS011;9485;49.386;8.674;2024-02-28T04:25:16;13.10;;;8.50;;
18711;SDS011;9485;49.386;8.674;2024-02-28T04:30:37;13.20;;;9.20;;
18711;SDS011;9485;49.386;8.674;2024-02-28T04:35:59;15.30;;;10.43;;
18711;SDS011;9485;49.386;8.674;2024-02-28T04:41:20;12.63;;;8.77;;
18711;SDS011;9485;49.386;8.674;2024-02-28T04:46:40;12.80;;;8.90;;
18711;SDS011;9485;49.386;8.674;2024-02-28T04:52:02;13.60;;;9.13;;
18711;SDS011;9485;49.386;8.674;2024-02-28T04:57:24;14.60;;;9.57;;
18711;SDS011;9485;49.386;8.674;2024-02-28T05:02:44;15.77;;;10.00;;
18711;SDS011;9485;49.386;8.674;2024-02-28T05:08:06;15.50;;;9.63;;
18711;SDS011;9485;49.386;8.674;2024-02-28T05:13:27;14.93;;;10.40;;
18711;SDS011;9485;49.386;8.674;2024-02-28T05:18:47;16.07;;;9.77;;
18711;SDS011;9485;49.386;8.674;2024-02-28T05:24:09;14.17;;;9.73;;
18711;SDS011;9485;49.386;8.674;2024-02-28T05:29:30;14.37;;;8.97;;
18711;SDS011;9485;49.386;8.674;2024-02-28T05:34:50;12.87;;;8.47;;
18711;SDS011;9485;49.386;8.674;2024-02-28T05:40:12;15.03;;;10.10;;
18711;SDS011;9485;49.386;8.674;2024-02-28T05:45:32;13.60;;;9.17;;
18711;SDS011;9485;49.386;8.674;2024-02-28T05:50:53;13.73;;;9.30;;
18711;SDS011;9485;49.386;8.674;2024-02-28T05:56:15;13.97;;;9.13;;
18711;SDS011;9485;49.386;8.674;2024-02-28T06:01:38;15.40;;;9.20;;
18711;SDS011;9485;49.386;8.674;2024-02-28T06:06:59;16.07;;;9.63;;
18711;SDS011;9485;49.386;8.674;2024-02-28T06:12:21;13.23;;;9.43;;
18711;SDS011;9485;49.386;8.674;2024-02-28T06:17:42;13.63;;;9.33;;
18711;SDS011;9485;49.386;8.674;2024-02-28T06:23:02;15.20;;;9.53;;
18711;SDS011;9485;49.386;8.674;2024-02-28T06:28:25;13.93;;;9.13;;
18711;SDS011;9485;49.386;8.674;2024-02-28T06:33:46;13.57;;;9.33;;
18711;SDS011;9485;49.386;8.674;2024-02-28T06:39:06;17.10;;;10.53;;
18711;SDS011;9485;49.386;8.674;2024-02-28T06:44:28;12.57;;;8.80;;
18711;SDS011;9485;49.386;8.674;2024-02-28T06:49:49;15.90;;;9.87;;
18711;SDS011;9485;49.386;8.674;2024-02-28T06:55:10;15.30;;;10.33;;
18711;SDS011;9485;49.386;8.674;2024-02-28T07:00:34;17.77;;;10.27;;
18711;SDS011;9485;49.386;8.674;2024-02-28T07:05:54;16.47;;;10.40;;
18711;SDS011;9485;49.386;8.674;2024-02-28T07:11:15;14.60;;;10.10;;
18711;SDS011;9485;49.386;8.674;2024-02-28T07:16:37;15.83;;;10.17;;
18711;SDS011;9485;49.386;8.674;2024-02-28T07:21:59;15.20;;;9.73;;
18711;SDS011;9485;49.386;8.674;2024-02-28T07:27:21;17.13;;;10.77;;
18711;SDS011;9485;49.386;8.674;2024-02-28T07:32:44;17.73;;;11.27;;
18711;SDS011;9485;49.386;8.674;2024-02-28T07:38:04;17.63;;;11.87;;
18711;SDS011;9485;49.386;8.674;2024-02-28T07:43:27;18.47;;;11.20;;
18711;SDS011;9485;49.386;8.674;2024-02-28T07:48:53;17.37;;;11.60;;
18711;SDS011;9485;49.386;8.674;2024-02-28T07:54:13;15.73;;;10.90;;
18711;SDS011;9485;49.386;8.674;2024-02-28T07:59:38;13.77;;;9.90;;
18711;SDS011;9485;49.386;8.674;2024-02-28T08:05:00;16.07;;;10.10;;
18711;SDS011;9485;49.386;8.674;2024-02-28T08:10:21;14.13;;;9.27;;
18711;SDS011;9485;49.386;8.674;2024-02-28T08:15:43;15.43;;;10.97;;
18711;SDS011;9485;49.386;8.674;2024-02-28T08:21:05;13.30;;;10.03;;
18711;SDS011;9485;49.386;8.674;2024-02-28T08:26:26;17.30;;;11.60;;
18711;SDS011;9485;49.386;8.674;2024-02-28T08:31:46;13.47;;;10.20;;
18711;SDS011;9485;49.386;8.674;2024-02-28T08:37:08;14.87;;;9.97;;
18711;SDS011;9485;49.386;8.674;2024-02-28T08:42:29;11.60;;;9.63;;
18711;SDS011;9485;49.386;8.674;2024-02-28T08:47:50;14.03;;;10.97;;
18711;SDS011;9485;49.386;8.674;2024-02-28T08:53:12;13.70;;;10.30;;
18711;SDS011;9485;49.386;8.674;2024-02-28T08:58:33;13.23;;;10.33;;
18711;SDS011;9485;49.386;8.674;2024-02-28T09:03:53;11.47;;;9.80;;
18711;SDS011;9485;49.386;8.674;2024-02-28T09:09:15;11.23;;;8.70;;
18711;SDS011;9485;49.386;8.674;2024-02-28T09:14:36;11.73;;;9.60;;
18711;SDS011;9485;49.386;8.674;2024-02-28T09:19:56;11.30;;;9.53;;
18711;SDS011;9485;49.386;8.674;2024-02-28T09:25:21;11.20;;;9.50;;
18711;SDS011;9485;49.386;8.674;2024-02-28T09:30:42;10.93;;;9.20;;
18711;SDS011;9485;49.386;8.674;2024-02-28T09:36:03;12.50;;;10.07;;
18711;SDS011;9485;49.386;8.674;2024-02-28T09:41:26;11.30;;;8.73;;
18711;SDS011;9485;49.386;8.674;2024-02-28T09:46:48;10.60;;;9.00;;
18711;SDS011;9485;49.386;8.674;2024-02-28T09:52:10;10.00;;;8.27;;
18711;SDS011;9485;49.386;8.674;2024-02-28T09:57:32;8.53;;;7.63;;
18711;SDS011;9485;49.386;8.674;2024-02-28T10:02:56;10.30;;;7.90;;
18711;SDS011;9485;49.386;8.674;2024-02-28T10:08:19;9.23;;;8.23;;
18711;SDS011;9485;49.386;8.674;2024-02-28T10:13:41;9.57;;;8.38;;
18711;SDS011;9485;49.386;8.674;2024-02-28T10:19:02;9.93;;;8.88;;
18711;SDS011;9485;49.386;8.674;2024-02-28T10:24:23;12.05;;;8.75;;
18711;SDS011;9485;49.386;8.674;2024-02-28T10:29:46;9.18;;;8.00;;
18711;SDS011;9485;49.386;8.674;2024-02-28T10:35:07;8.65;;;7.75;;
18711;SDS011;9485;49.386;8.674;2024-02-28T10:40:28;9.90;;;8.50;;
18711;SDS011;9485;49.386;8.674;2024-02-28T10:45:50;9.43;;;8.43;;
18711;SDS011;9485;49.386;8.674;2024-02-28T10:51:13;9.32;;;7.85;;
18711;SDS011;9485;49.386;8.674;2024-02-28T10:56:37;8.10;;;7.25;;
18711;SDS011;9485;49.386;8.674;2024-02-28T11:02:00;8.13;;;7.00;;
18711;SDS011;9485;49.386;8.674;2024-02-28T11:07:21;9.00;;;8.05;;
18711;SDS011;9485;49.386;8.674;2024-02-28T11:12:42;8.98;;;7.90;;
18711;SDS011;9485;49.386;8.674;2024-02-28T11:18:10;11.52;;;8.88;;
18711;SDS011;9485;49.386;8.674;2024-02-28T11:23:35;8.70;;;7.80;;
18711;SDS011;9485;49.386;8.674;2024-02-28T11:28:56;9.60;;;7.50;;
18711;SDS011;9485;49.386;8.674;2024-02-28T11:34:19;8.65;;;7.53;;
18711;SDS011;9485;49.386;8.674;2024-02-28T11:39:46;9.30;;;7.82;;
18711;SDS011;9485;49.386;8.674;2024-02-28T11:45:09;8.45;;;7.53;;
18711;SDS011;9485;49.386;8.674;2024-02-28T11:50:31;11.18;;;7.75;;
18711;SDS011;9485;49.386;8.674;2024-02-28T11:55:52;10.52;;;8.30;;
18711;SDS011;9485;49.386;8.674;2024-02-28T12:01:14;8.07;;;6.97;;
18711;SDS011;9485;49.386;8.674;2024-02-28T12:06:36;9.57;;;7.38;;
18711;SDS011;9485;49.386;8.674;2024-02-28T12:12:00;9.65;;;7.63;;
18711;SDS011;9485;49.386;8.674;2024-02-28T12:17:24;7.43;;;6.65;;
18711;SDS011;9485;49.386;8.674;2024-02-28T12:22:46;7.93;;;7.10;;
18711;SDS011;9485;49.386;8.674;2024-02-28T12:28:08;8.10;;;6.93;;
18711;SDS011;9485;49.386;8.674;2024-02-28T12:33:29;7.38;;;6.22;;
18711;SDS011;9485;49.386;8.674;2024-02-28T12:38:52;7.78;;;6.63;;
18711;SDS011;9485;49.386;8.674;2024-02-28T12:44:13;7.45;;;6.65;;
18711;SDS011;9485;49.386;8.674;2024-02-28T12:49:34;8.15;;;6.60;;
18711;SDS011;9485;49.386;8.674;2024-02-28T12:54:56;6.38;;;5.78;;
18711;SDS011;9485;49.386;8.674;2024-02-28T13:00:16;9.20;;;6.90;;
18711;SDS011;9485;49.386;8.674;2024-02-28T13:05:38;6.55;;;5.90;;
18711;SDS011;9485;49.386;8.674;2024-02-28T13:10:59;7.25;;;5.93;;
18711;SDS011;9485;49.386;8.674;2024-02-28T13:16:20;7.10;;;6.13;;
18711;SDS011;9485;49.386;8.674;2024-02-28T13:21:41;7.38;;;6.40;;
18711;SDS011;9485;49.386;8.674;2024-02-28T13:27:03;8.68;;;6.88;;
18711;SDS011;9485;49.386;8.674;2024-02-28T13:32:25;6.25;;;5.60;;
18711;SDS011;9485;49.386;8.674;2024-02-28T13:37:45;7.30;;;5.72;;
18711;SDS011;9485;49.386;8.674;2024-02-28T13:43:07;7.43;;;5.88;;
18711;SDS011;9485;49.386;8.674;2024-02-28T13:48:28;7.80;;;5.88;;
18711;SDS011;9485;49.386;8.674;2024-02-28T13:53:49;7.22;;;6.25;;
18711;SDS011;9485;49.386;8.674;2024-02-28T13:59:13;7.25;;;6.55;;
18711;SDS011;9485;49.386;8.674;2024-02-28T14:04:34;8.45;;;6.78;;
18711;SDS011;9485;49.386;8.674;2024-02-28T14:09:54;7.45;;;6.18;;
18711;SDS011;9485;49.386;8.674;2024-02-28T14:15:17;8.07;;;6.18;;
18711;SDS011;9485;49.386;8.674;2024-02-28T14:20:38;7.18;;;5.85;;
18711;SDS011;9485;49.386;8.674;2024-02-28T14:25:59;7.43;;;6.35;;
18711;SDS011;9485;49.386;8.674;2024-02-28T14:31:22;7.45;;;6.07;;
18711;SDS011;9485;49.386;8.674;2024-02-28T14:36:43;7.22;;;5.50;;
18711;SDS011;9485;49.386;8.674;2024-02-28T14:42:03;8.10;;;6.45;;
18711;SDS011;9485;49.386;8.674;2024-02-28T14:47:29;7.37;;;6.17;;
18711;SDS011;9485;49.386;8.674;2024-02-28T14:52:50;7.53;;;6.27;;
18711;SDS011;9485;49.386;8.674;2024-02-28T14:58:10;7.50;;;6.37;;
18711;SDS011;9485;49.386;8.674;2024-02-28T15:03:32;7.67;;;6.50;;
18711;SDS011;9485;49.386;8.674;2024-02-28T15:08:53;8.07;;;6.70;;
18711;SDS011;9485;49.386;8.674;2024-02-28T15:14:13;8.27;;;6.17;;
18711;SDS011;9485;49.386;8.674;2024-02-28T15:19:35;7.67;;;6.30;;
18711;SDS011;9485;49.386;8.674;2024-02-28T15:24:56;6.23;;;5.63;;
18711;SDS011;9485;49.386;8.674;2024-02-28T15:30:16;9.27;;;6.70;;
18711;SDS011;9485;49.386;8.674;2024-02-28T15:35:38;7.30;;;6.10;;
18711;SDS011;9485;49.386;8.674;2024-02-28T15:40:59;8.63;;;6.60;;
18711;SDS011;9485;49.386;8.674;2024-02-28T15:46:20;7.17;;;5.63;;
18711;SDS011;9485;49.386;8.674;2024-02-28T15:51:42;9.13;;;6.40;;
18711;SDS011;9485;49.386;8.674;2024-02-28T15:57:03;8.00;;;6.23;;
18711;SDS011;9485;49.386;8.674;2024-02-28T16:02:23;7.70;;;5.87;;
18711;SDS011;9485;49.386;8.674;2024-02-28T16:07:45;7.53;;;5.90;;
18711;SDS011;9485;49.386;8.674;2024-02-28T16:13:06;8.67;;;6.07;;
18711;SDS011;9485;49.386;8.674;2024-02-28T16:18:27;7.10;;;5.93;;
18711;SDS011;9485;49.386;8.674;2024-02-28T16:23:49;8.27;;;6.43;;
18711;SDS011;9485;49.386;8.674;2024-02-28T16:29:10;7.97;;;6.03;;
18711;SDS011;9485;49.386;8.674;2024-02-28T16:34:30;8.90;;;6.53;;
18711;SDS011;9485;49.386;8.674;2024-02-28T16:39:54;9.43;;;6.83;;
18711;SDS011;9485;49.386;8.674;2024-02-28T16:45:15;8.33;;;6.50;;
18711;SDS011;9485;49.386;8.674;2024-02-28T16:50:36;9.57;;;6.90;;
18711;SDS011;9485;49.386;8.674;2024-02-28T16:55:57;8.93;;;6.80;;
18711;SDS011;9485;49.386;8.674;2024-02-28T17:01:18;9.77;;;6.93;;
18711;SDS011;9485;49.386;8.674;2024-02-28T17:06:41;8.93;;;6.87;;
18711;SDS011;9485;49.386;8.674;2024-02-28T17:12:03;9.30;;;7.00;;
18711;SDS011;9485;49.386;8.674;2024-02-28T17:17:24;10.87;;;7.40;;
18711;SDS011;9485;49.386;8.674;2024-02-28T17:22:45;12.57;;;7.83;;
18711;SDS011;9485;49.386;8.674;2024-02-28T17:28:07;9.27;;;7.40;;
18711;SDS011;9485;49.386;8.674;2024-02-28T17:33:27;13.17;;;7.80;;
18711;SDS011;9485;49.386;8.674;2024-02-28T17:38:48;10.13;;;7.20;;
18711;SDS011;9485;49.386;8.674;2024-02-28T17:44:10;12.10;;;7.90;;
18711;SDS011;9485;49.386;8.674;2024-02-28T17:49:31;10.37;;;7.80;;
18711;SDS011;9485;49.386;8.674;2024-02-28T17:54:52;10.53;;;7.47;;
18711;SDS011;9485;49.386;8.674;2024-02-28T18:00:15;10.87;;;8.17;;
18711;SDS011;9485;49.386;8.674;2024-02-28T18:05:40;10.87;;;6.93;;
18711;SDS011;9485;49.386;8.674;2024-02-28T18:11:01;10.63;;;7.13;;
18711;SDS011;9485;49.386;8.674;2024-02-28T18:16:24;8.93;;;7.13;;
18711;SDS011;9485;49.386;8.674;2024-02-28T18:21:44;11.13;;;7.77;;
18711;SDS011;9485;49.386;8.674;2024-02-28T18:27:05;11.53;;;7.77;;
18711;SDS011;9485;49.386;8.674;2024-02-28T18:32:29;11.40;;;7.43;;
18711;SDS011;9485;49.386;8.674;2024-02-28T18:37:50;9.57;;;6.83;;
18711;SDS011;9485;49.386;8.674;2024-02-28T18:43:11;10.83;;;7.33;;
18711;SDS011;9485;49.386;8.674;2024-02-28T18:48:35;8.63;;;6.33;;
18711;SDS011;9485;49.386;8.674;2024-02-28T18:53:56;10.20;;;7.13;;
18711;SDS011;9485;49.386;8.674;2024-02-28T18:59:16;9.30;;;6.57;;
18711;SDS011;9485;49.386;8.674;2024-02-28T19:04:38;8.17;;;6.80;;
18711;SDS011;9485;49.386;8.674;2024-02-28T19:09:59;11.00;;;7.60;;
18711;SDS011;9485;49.386;8.674;2024-02-28T19:15:20;12.47;;;8.07;;
18711;SDS011;9485;49.386;8.674;2024-02-28T19:20:42;12.50;;;8.70;;
18711;SDS011;9485;49.386;8.674;2024-02-28T19:26:03;13.47;;;9.63;;
18711;SDS011;9485;49.386;8.674;2024-02-28T19:31:24;13.07;;;9.37;;
18711;SDS011;9485;49.386;8.674;2024-02-28T19:36:46;12.57;;;9.03;;
18711;SDS011;9485;49.386;8.674;2024-02-28T19:42:06;12.43;;;8.37;;
18711;SDS011;9485;49.386;8.674;2024-02-28T19:47:27;12.77;;;9.27;;
18711;SDS011;9485;49.386;8.674;2024-02-28T19:52:48;11.70;;;8.17;;
18711;SDS011;9485;49.386;8.674;2024-02-28T19:58:09;12.27;;;8.50;;
18711;SDS011;9485;49.386;8.674;2024-02-28T20:03:30;11.87;;;8.53;;
18711;SDS011;9485;49.386;8.674;2024-02-28T20:08:52;11.63;;;7.80;;
18711;SDS011;9485;49.386;8.674;2024-02-28T20:14:12;13.17;;;8.57;;
18711;SDS011;9485;49.386;8.674;2024-02-28T20:19:34;11.67;;;8.50;;
18711;SDS011;9485;49.386;8.674;2024-02-28T20:24:57;12.20;;;8.10;;
18711;SDS011;9485;49.386;8.674;2024-02-28T20:30:18;11.13;;;7.93;;
18711;SDS011;9485;49.386;8.674;2024-02-28T20:35:39;11.00;;;7.63;;
18711;SDS011;9485;49.386;8.674;2024-02-28T20:41:00;11.10;;;8.37;;
18711;SDS011;9485;49.386;8.674;2024-02-28T20:46:21;13.07;;;8.73;;
18711;SDS011;9485;49.386;8.674;2024-02-28T20:51:42;15.50;;;10.23;;
18711;SDS011;9485;49.386;8.674;2024-02-28T20:57:05;13.93;;;9.03;;
18711;SDS011;9485;49.386;8.674;2024-02-28T21:02:26;12.67;;;8.30;;
18711;SDS011;9485;49.386;8.674;2024-02-28T21:07:46;13.23;;;8.57;;
18711;SDS011;9485;49.386;8.674;2024-02-28T21:13:08;14.40;;;8.77;;
18711;SDS011;9485;49.386;8.674;2024-02-28T21:18:29;12.13;;;8.37;;
18711;SDS011;9485;49.386;8.674;2024-02-28T21:23:49;14.53;;;8.57;;
18711;SDS011;9485;49.386;8.674;2024-02-28T21:29:11;14.57;;;8.17;;
18711;SDS011;9485;49.386;8.674;2024-02-28T21:34:31;11.50;;;7.53;;
18711;SDS011;9485;49.386;8.674;2024-02-28T21:39:52;10.37;;;7.67;;
18711;SDS011;9485;49.386;8.674;2024-02-28T21:45:14;14.33;;;9.63;;
18711;SDS011;9485;49.386;8.674;2024-02-28T21:50:36;12.27;;;8.33;;
18711;SDS011;9485;49.386;8.674;2024-02-28T21:55:58;14.50;;;9.60;;
18711;SDS011;9485;49.386;8.674;2024-02-28T22:01:20;13.87;;;8.60;;
18711;SDS011;9485;49.386;8.674;2024-02-28T22:06:41;15.10;;;9.33;;
18711;SDS011;9485;49.386;8.674;2024-02-28T22:12:02;13.07;;;8.77;;
18711;SDS011;9485;49.386;8.674;2024-02-28T22:17:24;15.20;;;8.97;;
18711;SDS011;9485;49.386;8.674;2024-02-28T22:22:45;17.47;;;10.17;;
18711;SDS011;9485;49.386;8.674;2024-02-28T22:28:06;15.30;;;9.30;;
18711;SDS011;9485;49.386;8.674;2024-02-28T22:33:28;14.20;;;8.73;;
18711;SDS011;9485;49.386;8.674;2024-02-28T22:38:48;15.83;;;8.90;;
18711;SDS011;9485;49.386;8.674;2024-02-28T22:44:11;14.43;;;8.67;;
18711;SDS011;9485;49.386;8.674;2024-02-28T22:49:33;14.47;;;9.13;;
18711;SDS011;9485;49.386;8.674;2024-02-28T22:54:53;13.03;;;9.53;;
18711;SDS011;9485;49.386;8.674;2024-02-28T23:00:14;12.47;;;8.20;;
18711;SDS011;9485;49.386;8.674;2024-02-28T23:05:49;12.90;;;8.43;;
18711;SDS011;9485;49.386;8.674;2024-02-28T23:11:09;13.97;;;8.50;;
18711;SDS011;9485;49.386;8.674;2024-02-28T23:16:30;11.73;;;8.37;;
18711;SDS011;9485;49.386;8.674;2024-02-28T23:21:53;13.77;;;8.80;;
18711;SDS011;9485;49.386;8.674;2024-02-28T23:27:14;14.17;;;8.97;;
18711;SDS011;9485;49.386;8.674;2024-02-28T23:32:34;13.10;;;8.00;;
18711;SDS011;9485;49.386;8.674;2024-02-28T23:37:57;13.13;;;8.30;;
18711;SDS011;9485;49.386;8.674;2024-02-28T23:43:17;12.57;;;8.17;;
18711;SDS011;9485;49.386;8.674;2024-02-28T23:48:38;12.97;;;9.10;;
18711;SDS011;9485;49.386;8.674;2024-02-28T23:54:00;14.67;;;10.07;;
18711;SDS011;9485;49.386;8.674;2024-02-28T23:59:21;12.17;;;8.00;;
